sensor_id;sensor_type;location;lat;lon;timestamp;pressure;altitude;pressure_sealevel;temperature;humidity
42001;BME280;27689;48.390;10.856;2023-03-20T00:00:51;96278.00;;;9.80;100.00
42001;BME280;27689;48.390;10.856;2023-03-20T00:03:35;96278.56;;;9.74;100.00
42001;BME280;27689;48.390;10.856;2023-03-20T00:06:24;96289.72;;;9.76;100.00
42001;BME280;27689;48.390;10.856;2023-03-20T00:09:08;96287.22;;;9.74;100.00
42001;BME280;27689;48.390;10.856;2023-03-20T00:11:54;96286.41;;;9.83;100.00
42001;BME280;27689;48.390;10.856;2023-03-20T00:14:39;96292.06;;;9.79;100.00
42001;BME280;27689;48.390;10.856;2023-03-20T00:17:23;96298.66;;;9.73;100.00
42001;BME280;27689;48.390;10.856;2023-03-20T00:20:13;96283.91;;;9.82;100.00
42001;BME280;27689;48.390;10.856;2023-03-20T00:22:58;96294.69;;;9.79;100.00
42001;BME280;27689;48.390;10.856;2023-03-20T00:25:43;96292.06;;;9.79;100.00
42001;BME280;27689;48.390;10.856;2023-03-20T00:28:38;96295.34;;;9.81;100.00
42001;BME280;27689;48.390;10.856;2023-03-20T00:34:13;96296.03;;;9.83;100.00
42001;BME280;27689;48.390;10.856;2023-03-20T00:36:58;96293.44;;;9.64;100.00
42001;BME280;27689;48.390;10.856;2023-03-20T00:39:42;96291.06;;;9.70;100.00
42001;BME280;27689;48.390;10.856;2023-03-20T00:42:26;96296.31;;;9.61;100.00
42001;BME280;27689;48.390;10.856;2023-03-20T00:45:17;96302.50;;;9.60;100.00
42001;BME280;27689;48.390;10.856;2023-03-20T00:48:01;96299.31;;;9.56;100.00
42001;BME280;27689;48.390;10.856;2023-03-20T00:50:46;96302.47;;;9.50;100.00
42001;BME280;27689;48.390;10.856;2023-03-20T00:53:30;96303.28;;;9.50;100.00
42001;BME280;27689;48.390;10.856;2023-03-20T00:56:35;96303.16;;;9.52;100.00
42001;BME280;27689;48.390;10.856;2023-03-20T00:59:26;96303.72;;;9.55;100.00
42001;BME280;27689;48.390;10.856;2023-03-20T01:02:11;96301.38;;;9.52;100.00
42001;BME280;27689;48.390;10.856;2023-03-20T01:04:56;96297.09;;;9.51;100.00
42001;BME280;27689;48.390;10.856;2023-03-20T01:07:40;96299.06;;;9.49;100.00
42001;BME280;27689;48.390;10.856;2023-03-20T01:10:27;96292.56;;;9.53;100.00
42001;BME280;27689;48.390;10.856;2023-03-20T01:13:20;96287.59;;;9.41;100.00
42001;BME280;27689;48.390;10.856;2023-03-20T01:16:11;96292.41;;;9.36;100.00
42001;BME280;27689;48.390;10.856;2023-03-20T01:19:00;96296.00;;;9.44;100.00
42001;BME280;27689;48.390;10.856;2023-03-20T01:21:44;96290.91;;;9.43;100.00
42001;BME280;27689;48.390;10.856;2023-03-20T01:24:28;96293.22;;;9.36;100.00
42001;BME280;27689;48.390;10.856;2023-03-20T01:27:17;96289.13;;;9.34;100.00
42001;BME280;27689;48.390;10.856;2023-03-20T01:30:02;96289.41;;;9.40;100.00
42001;BME280;27689;48.390;10.856;2023-03-20T01:32:47;96285.56;;;9.44;100.00
42001;BME280;27689;48.390;10.856;2023-03-20T01:35:31;96290.66;;;9.55;100.00
42001;BME280;27689;48.390;10.856;2023-03-20T01:38:20;96289.81;;;9.45;100.00
42001;BME280;27689;48.390;10.856;2023-03-20T01:41:11;96282.38;;;9.50;100.00
42001;BME280;27689;48.390;10.856;2023-03-20T01:43:56;96287.47;;;9.33;100.00
42001;BME280;27689;48.390;10.856;2023-03-20T01:46:39;96281.13;;;9.35;100.00
42001;BME280;27689;48.390;10.856;2023-03-20T01:52:08;96279.84;;;9.20;100.00
42001;BME280;27689;48.390;10.856;2023-03-20T01:54:52;96271.91;;;9.31;100.00
42001;BME280;27689;48.390;10.856;2023-03-20T01:57:36;96273.41;;;9.24;100.00
42001;BME280;27689;48.390;10.856;2023-03-20T02:00:21;96283.84;;;9.24;100.00
42001;BME280;27689;48.390;10.856;2023-03-20T02:03:07;96274.34;;;9.23;100.00
42001;BME280;27689;48.390;10.856;2023-03-20T02:05:54;96272.56;;;9.24;100.00
42001;BME280;27689;48.390;10.856;2023-03-20T02:08:46;96278.38;;;9.27;100.00
42001;BME280;27689;48.390;10.856;2023-03-20T02:11:31;96280.28;;;9.25;100.00
42001;BME280;27689;48.390;10.856;2023-03-20T02:14:15;96277.09;;;9.22;100.00
42001;BME280;27689;48.390;10.856;2023-03-20T02:16:59;96277.09;;;9.22;100.00
42001;BME280;27689;48.390;10.856;2023-03-20T02:20:10;96278.75;;;9.13;100.00
42001;BME280;27689;48.390;10.856;2023-03-20T02:23:12;96281.34;;;9.13;100.00
42001;BME280;27689;48.390;10.856;2023-03-20T02:26:11;96282.59;;;9.09;100.00
42001;BME280;27689;48.390;10.856;2023-03-20T02:32:10;96288.50;;;9.01;100.00
42001;BME280;27689;48.390;10.856;2023-03-20T02:38:09;96290.00;;;9.04;100.00
42001;BME280;27689;48.390;10.856;2023-03-20T02:41:38;96292.06;;;9.10;100.00
42001;BME280;27689;48.390;10.856;2023-03-20T02:47:49;96295.00;;;9.16;100.00
42001;BME280;27689;48.390;10.856;2023-03-20T02:51:01;96304.75;;;9.14;100.00
42001;BME280;27689;48.390;10.856;2023-03-20T02:57:01;96307.66;;;9.21;99.70
42001;BME280;27689;48.390;10.856;2023-03-20T03:00:01;96317.13;;;9.22;99.17
42001;BME280;27689;48.390;10.856;2023-03-20T03:03:15;96319.84;;;9.01;99.92
42001;BME280;27689;48.390;10.856;2023-03-20T03:06:10;96320.81;;;9.00;100.00
42001;BME280;27689;48.390;10.856;2023-03-20T03:09:02;96311.00;;;8.93;100.00
42001;BME280;27689;48.390;10.856;2023-03-20T03:11:50;96317.63;;;8.97;99.91
42001;BME280;27689;48.390;10.856;2023-03-20T03:14:42;96320.06;;;8.89;100.00
42001;BME280;27689;48.390;10.856;2023-03-20T03:17:31;96313.44;;;8.84;100.00
42001;BME280;27689;48.390;10.856;2023-03-20T03:20:24;96325.59;;;8.95;100.00
42001;BME280;27689;48.390;10.856;2023-03-20T03:23:19;96323.63;;;8.88;100.00
42001;BME280;27689;48.390;10.856;2023-03-20T03:26:05;96326.38;;;8.86;100.00
42001;BME280;27689;48.390;10.856;2023-03-20T03:28:57;96323.78;;;8.86;100.00
42001;BME280;27689;48.390;10.856;2023-03-20T03:31:44;96335.56;;;8.80;100.00
42001;BME280;27689;48.390;10.856;2023-03-20T03:34:28;96331.16;;;8.81;100.00
42001;BME280;27689;48.390;10.856;2023-03-20T03:37:17;96342.06;;;8.86;100.00
42001;BME280;27689;48.390;10.856;2023-03-20T03:40:19;96339.69;;;8.83;100.00
42001;BME280;27689;48.390;10.856;2023-03-20T03:43:16;96342.06;;;8.86;99.94
42001;BME280;27689;48.390;10.856;2023-03-20T03:46:09;96342.31;;;8.83;99.58
42001;BME280;27689;48.390;10.856;2023-03-20T03:48:56;96348.09;;;8.87;99.54
42001;BME280;27689;48.390;10.856;2023-03-20T03:51:42;96344.53;;;8.88;99.61
42001;BME280;27689;48.390;10.856;2023-03-20T03:54:39;96347.84;;;8.90;99.72
42001;BME280;27689;48.390;10.856;2023-03-20T03:57:30;96335.19;;;8.85;99.97
42001;BME280;27689;48.390;10.856;2023-03-20T04:00:19;96340.28;;;8.87;99.42
42001;BME280;27689;48.390;10.856;2023-03-20T04:03:06;96338.75;;;8.84;99.63
42001;BME280;27689;48.390;10.856;2023-03-20T04:05:53;96347.88;;;8.69;100.00
42001;BME280;27689;48.390;10.856;2023-03-20T04:08:39;96349.78;;;8.67;100.00
42001;BME280;27689;48.390;10.856;2023-03-20T04:11:25;96363.94;;;8.64;100.00
42001;BME280;27689;48.390;10.856;2023-03-20T04:14:11;96342.91;;;8.66;100.00
42001;BME280;27689;48.390;10.856;2023-03-20T04:16:55;96363.88;;;8.55;100.00
42001;BME280;27689;48.390;10.856;2023-03-20T04:19:39;96366.63;;;8.53;100.00
42001;BME280;27689;48.390;10.856;2023-03-20T04:22:23;96375.16;;;8.55;100.00
42001;BME280;27689;48.390;10.856;2023-03-20T04:25:08;96370.00;;;8.44;100.00
42001;BME280;27689;48.390;10.856;2023-03-20T04:27:53;96376.66;;;8.37;100.00
42001;BME280;27689;48.390;10.856;2023-03-20T04:30:38;96369.94;;;8.23;100.00
42001;BME280;27689;48.390;10.856;2023-03-20T04:33:23;96380.38;;;8.23;100.00
42001;BME280;27689;48.390;10.856;2023-03-20T04:36:07;96383.59;;;8.27;100.00
42001;BME280;27689;48.390;10.856;2023-03-20T04:38:52;96381.56;;;8.30;100.00
42001;BME280;27689;48.390;10.856;2023-03-20T04:41:36;96383.34;;;8.30;100.00
42001;BME280;27689;48.390;10.856;2023-03-20T04:44:20;96386.41;;;8.35;100.00
42001;BME280;27689;48.390;10.856;2023-03-20T04:47:04;96387.81;;;8.39;100.00
42001;BME280;27689;48.390;10.856;2023-03-20T04:49:48;96387.00;;;8.38;100.00
42001;BME280;27689;48.390;10.856;2023-03-20T04:52:32;96390.69;;;8.36;100.00
42001;BME280;27689;48.390;10.856;2023-03-20T04:55:16;96389.50;;;8.29;100.00
42001;BME280;27689;48.390;10.856;2023-03-20T04:58:00;96398.38;;;8.37;100.00
42001;BME280;27689;48.390;10.856;2023-03-20T05:00:44;96392.59;;;8.34;100.00
42001;BME280;27689;48.390;10.856;2023-03-20T05:03:29;96389.25;;;8.32;100.00
42001;BME280;27689;48.390;10.856;2023-03-20T05:06:12;96393.91;;;8.28;100.00
42001;BME280;27689;48.390;10.856;2023-03-20T05:08:58;96396.38;;;8.30;100.00
42001;BME280;27689;48.390;10.856;2023-03-20T05:11:42;96394.72;;;8.29;100.00
42001;BME280;27689;48.390;10.856;2023-03-20T05:14:26;96394.38;;;8.22;100.00
42001;BME280;27689;48.390;10.856;2023-03-20T05:17:10;96405.06;;;8.19;100.00
42001;BME280;27689;48.390;10.856;2023-03-20T05:19:54;96418.50;;;8.14;100.00
42001;BME280;27689;48.390;10.856;2023-03-20T05:22:38;96413.78;;;8.08;100.00
42001;BME280;27689;48.390;10.856;2023-03-20T05:25:22;96409.63;;;8.06;100.00
42001;BME280;27689;48.390;10.856;2023-03-20T05:28:06;96411.53;;;8.04;100.00
42001;BME280;27689;48.390;10.856;2023-03-20T05:30:50;96413.78;;;8.08;100.00
42001;BME280;27689;48.390;10.856;2023-03-20T05:33:33;96420.41;;;8.12;100.00
42001;BME280;27689;48.390;10.856;2023-03-20T05:36:17;96415.44;;;8.09;100.00
42001;BME280;27689;48.390;10.856;2023-03-20T05:39:01;96416.50;;;8.07;100.00
42001;BME280;27689;48.390;10.856;2023-03-20T05:41:45;96412.47;;;8.03;100.00
42001;BME280;27689;48.390;10.856;2023-03-20T05:44:29;96416.19;;;8.00;100.00
42001;BME280;27689;48.390;10.856;2023-03-20T05:47:14;96425.81;;;7.89;100.00
42001;BME280;27689;48.390;10.856;2023-03-20T05:49:58;96422.13;;;7.91;100.00
42001;BME280;27689;48.390;10.856;2023-03-20T05:52:42;96425.22;;;7.96;100.00
42001;BME280;27689;48.390;10.856;2023-03-20T05:55:29;96431.97;;;7.99;100.00
42001;BME280;27689;48.390;10.856;2023-03-20T05:58:13;96434.94;;;7.94;100.00
42001;BME280;27689;48.390;10.856;2023-03-20T06:00:57;96428.69;;;7.86;100.00
42001;BME280;27689;48.390;10.856;2023-03-20T06:03:41;96430.53;;;7.95;100.00
42001;BME280;27689;48.390;10.856;2023-03-20T06:06:25;96431.03;;;8.00;100.00
42001;BME280;27689;48.390;10.856;2023-03-20T06:09:10;96425.91;;;7.98;100.00
42001;BME280;27689;48.390;10.856;2023-03-20T06:11:54;96428.66;;;7.97;100.00
42001;BME280;27689;48.390;10.856;2023-03-20T06:14:38;96423.63;;;8.05;100.00
42001;BME280;27689;48.390;10.856;2023-03-20T06:17:22;96420.53;;;8.11;100.00
42001;BME280;27689;48.390;10.856;2023-03-20T06:20:07;96421.56;;;8.20;100.00
42001;BME280;27689;48.390;10.856;2023-03-20T06:22:51;96426.28;;;8.26;100.00
42001;BME280;27689;48.390;10.856;2023-03-20T06:25:35;96426.50;;;8.34;100.00
42001;BME280;27689;48.390;10.856;2023-03-20T06:28:19;96438.38;;;8.38;100.00
42001;BME280;27689;48.390;10.856;2023-03-20T06:31:03;96428.63;;;8.40;100.00
42001;BME280;27689;48.390;10.856;2023-03-20T06:33:47;96437.81;;;8.55;100.00
42001;BME280;27689;48.390;10.856;2023-03-20T06:36:31;96433.00;;;8.71;100.00
42001;BME280;27689;48.390;10.856;2023-03-20T06:39:15;96440.44;;;8.97;100.00
42001;BME280;27689;48.390;10.856;2023-03-20T06:41:59;96440.88;;;9.02;100.00
42001;BME280;27689;48.390;10.856;2023-03-20T06:44:43;96444.94;;;9.15;99.55
42001;BME280;27689;48.390;10.856;2023-03-20T06:47:27;96433.94;;;9.22;99.51
42001;BME280;27689;48.390;10.856;2023-03-20T06:50:12;96443.28;;;9.14;99.13
42001;BME280;27689;48.390;10.856;2023-03-20T06:52:56;96433.94;;;9.22;100.00
42001;BME280;27689;48.390;10.856;2023-03-20T06:55:40;96439.94;;;9.33;100.00
42001;BME280;27689;48.390;10.856;2023-03-20T06:58:24;96440.09;;;9.41;98.37
42001;BME280;27689;48.390;10.856;2023-03-20T07:01:12;96445.09;;;9.54;97.10
42001;BME280;27689;48.390;10.856;2023-03-20T07:03:57;96457.34;;;9.53;96.80
42001;BME280;27689;48.390;10.856;2023-03-20T07:06:42;96458.50;;;9.61;95.58
42001;BME280;27689;48.390;10.856;2023-03-20T07:09:26;96458.16;;;9.44;97.22
42001;BME280;27689;48.390;10.856;2023-03-20T07:12:14;96461.63;;;9.24;97.91
42001;BME280;27689;48.390;10.856;2023-03-20T07:14:58;96464.44;;;9.11;99.21
42001;BME280;27689;48.390;10.856;2023-03-20T07:17:42;96465.78;;;9.06;99.20
42001;BME280;27689;48.390;10.856;2023-03-20T07:20:26;96461.16;;;8.89;100.00
42001;BME280;27689;48.390;10.856;2023-03-20T07:23:10;96472.50;;;8.99;100.00
42001;BME280;27689;48.390;10.856;2023-03-20T07:25:54;96467.75;;;9.13;99.63
42001;BME280;27689;48.390;10.856;2023-03-20T07:28:38;96471.69;;;9.29;98.65
42001;BME280;27689;48.390;10.856;2023-03-20T07:31:24;96474.53;;;9.46;98.96
42001;BME280;27689;48.390;10.856;2023-03-20T07:34:09;96475.66;;;9.53;97.77
42001;BME280;27689;48.390;10.856;2023-03-20T07:36:53;96481.06;;;9.62;97.60
42001;BME280;27689;48.390;10.856;2023-03-20T07:39:37;96485.94;;;9.76;96.85
42001;BME280;27689;48.390;10.856;2023-03-20T07:42:21;96483.88;;;9.79;95.71
42001;BME280;27689;48.390;10.856;2023-03-20T07:45:06;96483.22;;;9.87;96.12
42001;BME280;27689;48.390;10.856;2023-03-20T07:47:50;96479.91;;;9.95;94.69
42001;BME280;27689;48.390;10.856;2023-03-20T07:50:34;96480.06;;;9.93;93.17
42001;BME280;27689;48.390;10.856;2023-03-20T07:53:18;96480.66;;;10.06;93.13
42001;BME280;27689;48.390;10.856;2023-03-20T07:56:02;96472.88;;;9.95;93.67
42001;BME280;27689;48.390;10.856;2023-03-20T07:58:46;96471.78;;;9.88;94.30
42001;BME280;27689;48.390;10.856;2023-03-20T08:01:29;96478.94;;;9.96;94.61
42001;BME280;27689;48.390;10.856;2023-03-20T08:04:13;96478.16;;;9.65;94.81
42001;BME280;27689;48.390;10.856;2023-03-20T08:06:57;96478.09;;;9.76;94.32
42001;BME280;27689;48.390;10.856;2023-03-20T08:09:41;96467.06;;;9.82;94.81
42001;BME280;27689;48.390;10.856;2023-03-20T08:12:25;96471.41;;;9.93;93.50
42001;BME280;27689;48.390;10.856;2023-03-20T08:15:09;96463.31;;;10.15;92.79
42001;BME280;27689;48.390;10.856;2023-03-20T08:17:53;96461.38;;;10.17;91.52
42001;BME280;27689;48.390;10.856;2023-03-20T08:20:37;96462.50;;;10.24;91.99
42001;BME280;27689;48.390;10.856;2023-03-20T08:23:21;96456.59;;;10.32;90.96
42001;BME280;27689;48.390;10.856;2023-03-20T08:26:05;96454.81;;;10.42;89.03
42001;BME280;27689;48.390;10.856;2023-03-20T08:28:49;96453.69;;;10.54;89.50
42001;BME280;27689;48.390;10.856;2023-03-20T08:31:33;96446.81;;;10.72;88.13
42001;BME280;27689;48.390;10.856;2023-03-20T08:34:17;96454.13;;;10.78;87.23
42001;BME280;27689;48.390;10.856;2023-03-20T08:37:04;96456.56;;;10.89;86.91
42001;BME280;27689;48.390;10.856;2023-03-20T08:39:48;96449.84;;;10.77;87.15
42001;BME280;27689;48.390;10.856;2023-03-20T08:42:31;96452.81;;;11.02;86.93
42001;BME280;27689;48.390;10.856;2023-03-20T08:45:16;96459.97;;;11.19;86.35
42001;BME280;27689;48.390;10.856;2023-03-20T08:47:59;96464.66;;;11.25;84.96
42001;BME280;27689;48.390;10.856;2023-03-20T08:50:43;96461.81;;;10.89;85.33
42001;BME280;27689;48.390;10.856;2023-03-20T08:53:27;96466.91;;;11.01;86.43
42001;BME280;27689;48.390;10.856;2023-03-20T08:56:11;96464.03;;;10.94;85.80
42001;BME280;27689;48.390;10.856;2023-03-20T08:58:55;96463.69;;;11.26;85.75
42001;BME280;27689;48.390;10.856;2023-03-20T09:01:39;96468.72;;;11.47;84.22
42001;BME280;27689;48.390;10.856;2023-03-20T09:04:23;96470.03;;;11.70;81.82
42001;BME280;27689;48.390;10.856;2023-03-20T09:07:07;96469.34;;;11.58;81.79
42001;BME280;27689;48.390;10.856;2023-03-20T09:09:52;96471.41;;;11.64;81.76
42001;BME280;27689;48.390;10.856;2023-03-20T09:12:36;96471.38;;;11.74;79.33
42001;BME280;27689;48.390;10.856;2023-03-20T09:15:20;96471.13;;;11.77;80.13
42001;BME280;27689;48.390;10.856;2023-03-20T09:18:04;96463.22;;;12.05;80.38
42001;BME280;27689;48.390;10.856;2023-03-20T09:20:49;96461.69;;;11.75;77.96
42001;BME280;27689;48.390;10.856;2023-03-20T09:23:33;96466.47;;;11.98;78.62
42001;BME280;27689;48.390;10.856;2023-03-20T09:26:17;96471.56;;;12.00;76.63
42001;BME280;27689;48.390;10.856;2023-03-20T09:29:00;96465.63;;;11.98;75.89
42001;BME280;27689;48.390;10.856;2023-03-20T09:31:44;96453.25;;;12.08;75.87
42001;BME280;27689;48.390;10.856;2023-03-20T09:34:28;96453.38;;;12.52;75.23
42001;BME280;27689;48.390;10.856;2023-03-20T09:37:12;96450.50;;;12.81;72.24
42001;BME280;27689;48.390;10.856;2023-03-20T09:39:56;96448.16;;;12.95;70.42
42001;BME280;27689;48.390;10.856;2023-03-20T09:42:49;96444.28;;;13.25;70.62
42001;BME280;27689;48.390;10.856;2023-03-20T09:45:45;96452.34;;;13.58;67.77
42001;BME280;27689;48.390;10.856;2023-03-20T09:49:01;96449.13;;;12.94;67.44
42001;BME280;27689;48.390;10.856;2023-03-20T09:51:54;96453.63;;;13.20;67.44
42001;BME280;27689;48.390;10.856;2023-03-20T09:54:41;96454.66;;;13.09;67.53
42001;BME280;27689;48.390;10.856;2023-03-20T09:57:50;96454.59;;;12.57;68.46
42001;BME280;27689;48.390;10.856;2023-03-20T10:00:35;96450.16;;;12.40;68.85
42001;BME280;27689;48.390;10.856;2023-03-20T10:06:16;96447.38;;;12.42;68.50
42001;BME280;27689;48.390;10.856;2023-03-20T10:09:02;96446.44;;;12.33;68.64
42001;BME280;27689;48.390;10.856;2023-03-20T10:12:11;96441.44;;;12.75;68.86
42001;BME280;27689;48.390;10.856;2023-03-20T10:18:23;96426.16;;;13.22;65.59
42001;BME280;27689;48.390;10.856;2023-03-20T10:21:23;96442.88;;;12.95;67.11
42001;BME280;27689;48.390;10.856;2023-03-20T10:27:46;96434.75;;;13.06;65.48
42001;BME280;27689;48.390;10.856;2023-03-20T10:33:25;96436.03;;;13.20;64.70
42001;BME280;27689;48.390;10.856;2023-03-20T10:36:41;96438.41;;;13.14;63.71
42001;BME280;27689;48.390;10.856;2023-03-20T10:39:50;96439.28;;;12.96;66.45
42001;BME280;27689;48.390;10.856;2023-03-20T10:42:40;96435.47;;;12.91;66.51
42001;BME280;27689;48.390;10.856;2023-03-20T10:45:43;96431.38;;;12.70;67.98
42001;BME280;27689;48.390;10.856;2023-03-20T10:48:32;96430.25;;;12.99;67.18
42001;BME280;27689;48.390;10.856;2023-03-20T10:51:20;96422.13;;;13.36;64.20
42001;BME280;27689;48.390;10.856;2023-03-20T10:54:16;96418.78;;;13.26;62.24
42001;BME280;27689;48.390;10.856;2023-03-20T10:57:05;96420.25;;;13.20;61.27
42001;BME280;27689;48.390;10.856;2023-03-20T10:59:50;96432.06;;;12.98;61.14
42001;BME280;27689;48.390;10.856;2023-03-20T11:02:35;96427.41;;;12.92;60.93
42001;BME280;27689;48.390;10.856;2023-03-20T11:05:27;96421.13;;;12.85;62.96
42001;BME280;27689;48.390;10.856;2023-03-20T11:08:13;96419.47;;;12.84;63.53
42001;BME280;27689;48.390;10.856;2023-03-20T11:10:58;96426.09;;;12.88;64.84
42001;BME280;27689;48.390;10.856;2023-03-20T11:13:43;96436.34;;;12.99;62.62
42001;BME280;27689;48.390;10.856;2023-03-20T11:16:33;96427.59;;;12.91;61.25
42001;BME280;27689;48.390;10.856;2023-03-20T11:19:21;96428.06;;;12.68;63.47
42001;BME280;27689;48.390;10.856;2023-03-20T11:22:27;96423.88;;;12.58;63.66
42001;BME280;27689;48.390;10.856;2023-03-20T11:25:24;96431.16;;;12.46;64.84
42001;BME280;27689;48.390;10.856;2023-03-20T11:28:25;96429.47;;;12.63;64.42
42001;BME280;27689;48.390;10.856;2023-03-20T11:36:59;96439.50;;;12.42;59.42
42001;BME280;27689;48.390;10.856;2023-03-20T11:39:56;96433.63;;;12.48;60.03
42001;BME280;27689;48.390;10.856;2023-03-20T11:42:51;96430.69;;;12.51;61.11
42001;BME280;27689;48.390;10.856;2023-03-20T11:45:40;96417.50;;;12.60;61.00
42001;BME280;27689;48.390;10.856;2023-03-20T11:48:36;96426.25;;;12.69;60.58
42001;BME280;27689;48.390;10.856;2023-03-20T11:51:21;96411.69;;;12.57;61.09
42001;BME280;27689;48.390;10.856;2023-03-20T11:54:06;96416.47;;;12.61;60.57
42001;BME280;27689;48.390;10.856;2023-03-20T11:56:57;96418.38;;;12.69;61.22
42001;BME280;27689;48.390;10.856;2023-03-20T11:59:41;96424.47;;;12.52;60.79
42001;BME280;27689;48.390;10.856;2023-03-20T12:02:25;96425.13;;;12.54;60.19
42001;BME280;27689;48.390;10.856;2023-03-20T12:08:19;96426.25;;;12.69;61.08
42001;BME280;27689;48.390;10.856;2023-03-20T12:14:01;96422.09;;;13.10;60.27
42001;BME280;27689;48.390;10.856;2023-03-20T12:16:49;96420.41;;;13.19;58.55
42001;BME280;27689;48.390;10.856;2023-03-20T12:19:35;96417.00;;;13.08;57.77
42001;BME280;27689;48.390;10.856;2023-03-20T12:22:24;96418.91;;;13.16;57.86
42001;BME280;27689;48.390;10.856;2023-03-20T12:25:25;96416.19;;;13.08;57.13
42001;BME280;27689;48.390;10.856;2023-03-20T12:34:55;96411.47;;;12.94;57.34
42001;BME280;27689;48.390;10.856;2023-03-20T12:37:41;96409.25;;;12.81;58.89
42001;BME280;27689;48.390;10.856;2023-03-20T12:40:36;96413.38;;;12.84;58.84
42001;BME280;27689;48.390;10.856;2023-03-20T12:43:31;96413.00;;;12.79;58.64
42001;BME280;27689;48.390;10.856;2023-03-20T12:46:34;96407.44;;;12.82;58.05
42001;BME280;27689;48.390;10.856;2023-03-20T12:49:33;96418.47;;;12.42;59.52
42001;BME280;27689;48.390;10.856;2023-03-20T13:01:49;96415.53;;;12.27;61.83
42001;BME280;27689;48.390;10.856;2023-03-20T13:10:34;96415.69;;;12.25;62.81
42001;BME280;27689;48.390;10.856;2023-03-20T13:13:29;96411.56;;;12.23;63.74
42001;BME280;27689;48.390;10.856;2023-03-20T13:16:28;96416.41;;;12.18;64.50
42001;BME280;27689;48.390;10.856;2023-03-20T13:19:48;96406.09;;;12.16;65.01
42001;BME280;27689;48.390;10.856;2023-03-20T13:22:53;96409.31;;;12.10;65.99
42001;BME280;27689;48.390;10.856;2023-03-20T13:32:42;96406.22;;;11.97;67.75
42001;BME280;27689;48.390;10.856;2023-03-20T13:35:48;96397.50;;;11.96;67.39
42001;BME280;27689;48.390;10.856;2023-03-20T13:38:46;96396.69;;;11.96;68.25
42001;BME280;27689;48.390;10.856;2023-03-20T15:09:56;96342.69;;;12.55;60.02
42001;BME280;27689;48.390;10.856;2023-03-20T15:12:46;96339.00;;;12.48;60.60
42001;BME280;27689;48.390;10.856;2023-03-20T15:15:29;96339.00;;;12.48;60.93
42001;BME280;27689;48.390;10.856;2023-03-20T15:18:14;96335.38;;;12.41;59.88
42001;BME280;27689;48.390;10.856;2023-03-20T15:20:58;96334.53;;;12.40;60.55
42001;BME280;27689;48.390;10.856;2023-03-20T15:23:44;96331.22;;;12.56;58.47
42001;BME280;27689;48.390;10.856;2023-03-20T15:26:31;96330.22;;;12.57;58.72
42001;BME280;27689;48.390;10.856;2023-03-20T15:29:16;96329.25;;;12.58;57.06
42001;BME280;27689;48.390;10.856;2023-03-20T15:32:01;96331.13;;;12.48;57.58
42001;BME280;27689;48.390;10.856;2023-03-20T15:34:46;96319.16;;;12.45;58.25
42001;BME280;27689;48.390;10.856;2023-03-20T15:37:32;96312.75;;;12.48;58.93
42001;BME280;27689;48.390;10.856;2023-03-20T15:43:20;96316.06;;;12.32;58.02
42001;BME280;27689;48.390;10.856;2023-03-20T15:46:05;96311.81;;;12.31;58.14
42001;BME280;27689;48.390;10.856;2023-03-20T15:48:49;96318.53;;;12.33;58.46
42001;BME280;27689;48.390;10.856;2023-03-20T15:51:33;96318.91;;;12.39;58.07
42001;BME280;27689;48.390;10.856;2023-03-20T15:54:19;96319.16;;;12.27;58.63
42001;BME280;27689;48.390;10.856;2023-03-20T15:57:04;96318.25;;;12.36;58.13
42001;BME280;27689;48.390;10.856;2023-03-20T15:59:48;96311.13;;;12.29;58.54
42001;BME280;27689;48.390;10.856;2023-03-20T16:02:32;96317.91;;;12.31;58.95
42001;BME280;27689;48.390;10.856;2023-03-20T16:05:18;96317.00;;;12.23;58.56
42001;BME280;27689;48.390;10.856;2023-03-20T16:08:12;96317.13;;;12.39;57.48
42001;BME280;27689;48.390;10.856;2023-03-20T16:11:06;96317.06;;;12.31;56.75
42001;BME280;27689;48.390;10.856;2023-03-20T16:13:52;96321.66;;;12.11;56.99
42001;BME280;27689;48.390;10.856;2023-03-20T16:16:36;96325.13;;;12.12;58.06
42001;BME280;27689;48.390;10.856;2023-03-20T16:19:20;96322.63;;;12.10;58.17
42001;BME280;27689;48.390;10.856;2023-03-20T16:22:17;96324.34;;;12.19;56.88
42001;BME280;27689;48.390;10.856;2023-03-20T16:25:03;96322.09;;;12.24;57.06
42001;BME280;27689;48.390;10.856;2023-03-20T16:27:49;96326.06;;;12.28;56.75
42001;BME280;27689;48.390;10.856;2023-03-20T16:30:34;96325.94;;;12.30;56.61
42001;BME280;27689;48.390;10.856;2023-03-20T16:33:18;96320.06;;;12.18;56.71
42001;BME280;27689;48.390;10.856;2023-03-20T16:36:03;96319.84;;;12.12;57.18
42001;BME280;27689;48.390;10.856;2023-03-20T16:38:55;96320.97;;;12.09;57.36
42001;BME280;27689;48.390;10.856;2023-03-20T16:41:42;96319.63;;;12.05;57.54
42001;BME280;27689;48.390;10.856;2023-03-20T16:44:31;96313.25;;;12.08;57.25
42001;BME280;27689;48.390;10.856;2023-03-20T16:47:21;96315.81;;;11.99;58.03
42001;BME280;27689;48.390;10.856;2023-03-20T16:53:00;96318.66;;;11.88;58.03
42001;BME280;27689;48.390;10.856;2023-03-20T16:55:47;96319.41;;;11.81;58.43
42001;BME280;27689;48.390;10.856;2023-03-20T16:58:32;96316.66;;;11.73;58.96
42001;BME280;27689;48.390;10.856;2023-03-20T17:01:20;96319.22;;;11.64;59.63
42001;BME280;27689;48.390;10.856;2023-03-20T17:07:13;96326.19;;;11.56;60.23
42001;BME280;27689;48.390;10.856;2023-03-20T17:13:01;96333.41;;;11.44;61.00
42001;BME280;27689;48.390;10.856;2023-03-20T17:15:45;96324.72;;;11.44;61.15
42001;BME280;27689;48.390;10.856;2023-03-20T17:18:29;96329.03;;;11.35;61.35
42001;BME280;27689;48.390;10.856;2023-03-20T17:21:14;96318.31;;;11.28;61.70
42001;BME280;27689;48.390;10.856;2023-03-20T17:23:58;96315.44;;;11.22;62.10
42001;BME280;27689;48.390;10.856;2023-03-20T17:26:52;96319.72;;;11.23;62.15
42001;BME280;27689;48.390;10.856;2023-03-20T17:29:38;96329.13;;;11.16;62.66